Boggstown, Indiana
Current Conditions -  °F | °C
As of 11:06 PM on Sunday 23 Nov 2014 (Local Time) from KGEZ Reporting Station
Light Rain Light Rain  
Wind Chill: 58°   Ceiling: 900
Heat Index: 58°   Visibility: 10mi
Dew Point: 54°   Wind: 20mph
Humidity: 87%   Direction: 180°S
Pressure: 29.19"   Gusts: 28mph
Location:  39.56°N, 85.92°W
Report Text: KGEZ 240406Z AUTO 18017G24KT 10SM -RA OVC009 14/12 A2919 RMK AO2 CIG 008V014 P0001 T01440122
Loading
Personal Weather Stations






























Interactive Weather Map New forecast layout! Learn more

10-Day Weather Forecast

Advertisements
Track Severe Weather on mobile